createdAt,value
2023-08-19T00:02:09.832Z,71.76
2023-08-19T00:04:38.681Z,71.78
2023-08-19T00:07:10.008Z,71.92
2023-08-19T00:09:40.052Z,72.06
2023-08-19T00:12:10.490Z,72.16
2023-08-19T00:14:38.982Z,72.19
2023-08-19T00:17:07.854Z,72.34
2023-08-19T00:20:28.840Z,72.53
2023-08-19T00:22:58.502Z,72.67
2023-08-19T00:25:28.825Z,72.71
2023-08-19T00:27:57.270Z,72.81
2023-08-19T00:30:28.802Z,72.92
2023-08-19T00:32:58.412Z,72.96
2023-08-19T00:35:29.898Z,72.86
2023-08-19T00:38:00.257Z,72.95
2023-08-19T00:40:30.653Z,72.94
2023-08-19T00:42:59.743Z,73.09
2023-08-19T00:45:28.933Z,73.01
2023-08-19T00:47:59.260Z,73.15
2023-08-19T00:50:28.697Z,73.19
2023-08-19T00:52:58.863Z,73.32
2023-08-19T00:55:27.605Z,73.35
2023-08-19T00:57:57.078Z,73.47
2023-08-19T01:00:28.393Z,73.59
2023-08-19T01:02:56.736Z,73.58
2023-08-19T01:05:37.926Z,73.13
2023-08-19T01:08:12.827Z,73.20
2023-08-19T01:11:06.789Z,73.33
2023-08-19T01:14:21.091Z,73.46
2023-08-19T01:16:57.131Z,73.53
2023-08-19T01:19:54.841Z,73.48
2023-08-19T01:22:35.702Z,73.54
2023-08-19T01:25:07.068Z,73.75
2023-08-19T01:27:37.337Z,73.83
2023-08-19T01:30:09.632Z,73.94
2023-08-19T01:32:39.959Z,73.80
2023-08-19T01:35:10.083Z,73.99
2023-08-19T01:37:59.801Z,73.96
2023-08-19T01:40:33.653Z,74.08
2023-08-19T01:43:05.077Z,74.29
2023-08-19T01:45:37.036Z,74.35
2023-08-19T01:48:07.426Z,74.19
2023-08-19T01:50:40.612Z,74.14
2023-08-19T01:53:09.387Z,74.14
2023-08-19T01:55:39.667Z,74.35
2023-08-19T01:58:11.846Z,74.40
2023-08-19T02:00:42.555Z,74.60
2023-08-19T02:03:14.446Z,74.67
2023-08-19T02:05:44.907Z,74.63
2023-08-19T02:08:17.017Z,74.73
2023-08-19T02:10:48.231Z,75.02
2023-08-19T02:13:17.885Z,75.12
2023-08-19T02:15:49.047Z,75.03
2023-08-19T02:18:19.576Z,74.96
2023-08-19T02:25:20.159Z,74.98
2023-08-19T02:27:51.419Z,75.06
2023-08-19T02:30:24.495Z,75.31
2023-08-19T02:32:58.830Z,75.44
2023-08-19T02:35:35.011Z,75.60
2023-08-19T02:38:05.145Z,75.58
2023-08-19T02:40:39.437Z,75.67
2023-08-19T02:43:11.258Z,75.84
2023-08-19T02:45:46.856Z,75.90
2023-08-19T02:48:18.384Z,75.86
2023-08-19T02:50:56.768Z,75.89
2023-08-19T02:53:28.803Z,75.52
2023-08-19T02:55:57.548Z,75.42
2023-08-19T02:58:29.655Z,75.46
2023-08-19T03:00:58.417Z,75.62
2023-08-19T03:03:29.125Z,75.65
2023-08-19T03:06:05.087Z,76.00
2023-08-19T03:08:35.656Z,76.09
2023-08-19T03:11:05.641Z,75.93
2023-08-19T03:13:34.212Z,75.90
2023-08-19T03:16:04.012Z,75.89
2023-08-19T03:18:33.764Z,75.90
2023-08-19T03:21:07.651Z,75.91
2023-08-19T03:23:40.271Z,76.07
2023-08-19T03:26:10.313Z,76.14
2023-08-19T03:28:41.201Z,76.13
2023-08-19T03:31:12.501Z,76.08
2023-08-19T03:33:44.316Z,76.22
2023-08-19T03:36:15.679Z,76.41
2023-08-19T03:38:46.152Z,76.40
2023-08-19T03:41:15.974Z,76.58
2023-08-19T03:43:50.117Z,76.74
2023-08-19T03:46:18.664Z,76.43
2023-08-19T03:48:48.834Z,76.53
2023-08-19T03:51:22.301Z,76.59
2023-08-19T03:53:50.832Z,76.68
2023-08-19T03:56:19.817Z,76.70
2023-08-19T03:58:56.463Z,76.86
2023-08-19T04:01:34.435Z,76.92
2023-08-19T04:04:03.665Z,77.00
2023-08-19T04:06:33.420Z,77.07
2023-08-19T04:09:04.071Z,77.14
2023-08-19T04:11:35.220Z,77.11
2023-08-19T04:14:08.286Z,77.12
2023-08-19T04:16:41.432Z,77.26
2023-08-19T04:19:37.094Z,77.25
2023-08-19T04:22:06.399Z,77.22
2023-08-19T04:24:43.350Z,77.33
2023-08-19T04:27:20.574Z,77.23
2023-08-19T04:29:48.697Z,77.31
2023-08-19T04:32:20.923Z,77.51
2023-08-19T04:34:57.122Z,77.49
2023-08-19T04:37:32.257Z,77.55
2023-08-19T04:40:02.703Z,77.50
2023-08-19T04:42:39.768Z,77.59
2023-08-19T04:45:10.718Z,77.61
2023-08-19T04:47:44.544Z,77.65
2023-08-19T04:50:13.799Z,77.64
2023-08-19T04:52:44.673Z,77.69
2023-08-19T04:55:15.889Z,77.86
2023-08-19T04:57:46.125Z,77.74
2023-08-19T05:00:18.181Z,78.06
2023-08-19T05:02:49.464Z,77.86
2023-08-19T05:05:21.886Z,77.74
2023-08-19T05:07:54.204Z,77.73
2023-08-19T05:10:23.174Z,77.72
2023-08-19T05:12:59.055Z,77.54
2023-08-19T05:15:30.756Z,77.71
2023-08-19T05:17:59.974Z,77.71
2023-08-19T05:20:34.219Z,77.84
2023-08-19T05:23:09.175Z,77.63
2023-08-19T05:25:40.796Z,77.42
2023-08-19T05:28:10.970Z,77.55
2023-08-19T05:30:40.630Z,77.73
2023-08-19T05:33:10.729Z,77.73
2023-08-19T05:35:39.560Z,77.96
2023-08-19T05:38:07.640Z,78.04
2023-08-19T05:40:37.851Z,78.05
2023-08-19T05:43:08.992Z,77.75
2023-08-19T05:45:39.047Z,77.64
2023-08-19T05:48:09.351Z,77.83
2023-08-19T05:50:37.789Z,77.85
2023-08-19T05:53:07.079Z,77.84
2023-08-19T05:55:35.802Z,77.75
2023-08-19T05:58:08.659Z,77.72
2023-08-19T06:00:37.756Z,77.59
2023-08-19T06:03:08.412Z,77.48
2023-08-19T06:05:37.062Z,77.52
2023-08-19T06:08:08.517Z,77.53
2023-08-19T06:10:37.054Z,77.53
2023-08-19T06:13:07.694Z,77.05
2023-08-19T06:15:39.723Z,77.02
2023-08-19T06:18:08.856Z,77.20
2023-08-19T06:20:37.745Z,76.99
2023-08-19T06:23:05.266Z,76.86
2023-08-19T06:25:33.919Z,76.87
2023-08-19T06:28:01.883Z,76.82
2023-08-19T06:30:29.885Z,76.80
2023-08-19T06:32:58.048Z,76.60
2023-08-19T06:35:26.163Z,76.50
2023-08-19T06:37:56.816Z,76.49
2023-08-19T06:40:28.565Z,76.31
2023-08-19T06:42:56.754Z,76.08
2023-08-19T06:45:27.017Z,75.80
2023-08-19T06:47:58.837Z,75.61
2023-08-19T06:50:28.520Z,75.62
2023-08-19T06:52:58.098Z,75.46
2023-08-19T06:55:27.952Z,75.05
2023-08-19T06:58:09.000Z,74.71
2023-08-19T07:05:31.415Z,74.71
2023-08-19T07:08:05.871Z,74.37
2023-08-19T07:10:34.148Z,73.67
2023-08-19T07:13:03.128Z,73.22
2023-08-19T07:15:31.968Z,73.31
2023-08-19T07:18:04.455Z,73.33
2023-08-19T07:20:33.728Z,72.51
2023-08-19T07:23:03.552Z,71.69
2023-08-19T07:25:32.279Z,70.08
2023-08-19T07:28:05.674Z,68.34
2023-08-19T07:30:35.251Z,68.22
2023-08-19T07:33:05.100Z,69.02
2023-08-19T07:35:35.360Z,69.02
2023-08-19T07:38:04.116Z,69.31
2023-08-19T07:40:33.353Z,69.54
2023-08-19T07:43:03.261Z,69.49
2023-08-19T07:45:31.763Z,69.33
2023-08-19T07:48:04.741Z,67.65
2023-08-19T07:50:36.047Z,65.42
2023-08-19T07:53:06.515Z,64.17
2023-08-19T07:55:37.344Z,64.14
2023-08-19T07:58:08.014Z,64.48
2023-08-19T08:00:38.737Z,63.87
2023-08-19T08:03:09.330Z,64.28
2023-08-19T08:05:40.632Z,64.56
2023-08-19T08:08:09.478Z,64.07
2023-08-19T08:10:37.165Z,64.32
2023-08-19T08:13:07.227Z,64.79
2023-08-19T08:15:37.287Z,64.66
2023-08-19T08:18:08.495Z,64.05
2023-08-19T08:20:38.780Z,63.05
2023-08-19T08:23:07.507Z,61.43
2023-08-19T08:25:36.427Z,59.54
2023-08-19T08:28:06.370Z,58.74
2023-08-19T08:30:36.572Z,59.09
2023-08-19T08:33:06.033Z,58.81
2023-08-19T08:35:35.433Z,57.36
2023-08-19T08:38:06.690Z,56.96
2023-08-19T08:40:38.028Z,56.63
2023-08-19T08:43:07.064Z,55.95
2023-08-19T08:45:35.993Z,55.16
2023-08-19T08:48:05.309Z,54.70
2023-08-19T08:50:35.090Z,54.66
2023-08-19T08:53:06.901Z,53.34
2023-08-19T08:55:36.839Z,52.50
2023-08-19T08:58:06.811Z,52.51
2023-08-19T09:00:38.547Z,51.45
2023-08-19T09:03:11.584Z,51.10
2023-08-19T09:05:43.587Z,49.88
2023-08-19T09:08:15.468Z,49.07
2023-08-19T09:10:47.004Z,49.13
2023-08-19T09:13:22.135Z,48.79
2023-08-19T09:15:52.912Z,48.02
2023-08-19T09:18:21.952Z,47.95
2023-08-19T09:20:53.830Z,47.39
2023-08-19T09:23:24.767Z,46.94
2023-08-19T09:25:55.020Z,46.06
2023-08-19T09:28:26.271Z,46.07
2023-08-19T09:30:56.096Z,45.12
2023-08-19T09:33:24.599Z,44.73
2023-08-19T09:36:04.855Z,44.07
2023-08-19T09:38:43.698Z,43.54
2023-08-19T09:41:26.205Z,43.39
2023-08-19T09:44:28.001Z,42.18
2023-08-19T09:47:07.996Z,41.84
2023-08-19T09:49:55.937Z,41.24
2023-08-19T09:52:31.321Z,40.51
2023-08-19T09:55:02.809Z,39.81
2023-08-19T09:57:35.629Z,40.16
2023-08-19T10:00:11.453Z,39.38
2023-08-19T10:02:42.611Z,39.18
2023-08-19T10:05:16.636Z,39.25
2023-08-19T10:08:07.641Z,38.82
2023-08-19T10:10:42.276Z,38.85
2023-08-19T10:13:19.360Z,38.15
2023-08-19T10:15:49.237Z,37.79
2023-08-19T10:18:23.161Z,36.93
2023-08-19T10:21:23.028Z,36.40
2023-08-19T10:23:54.843Z,36.77
2023-08-19T10:26:24.642Z,36.27
2023-08-19T10:29:07.275Z,36.41
2023-08-19T10:31:37.883Z,36.41
2023-08-19T10:34:26.910Z,36.12
2023-08-19T10:37:17.084Z,35.41
2023-08-19T10:39:48.832Z,35.81
2023-08-19T10:42:17.362Z,35.83
2023-08-19T10:44:50.233Z,35.47
2023-08-19T10:47:19.334Z,35.52
2023-08-19T10:49:48.701Z,35.53
2023-08-19T10:52:23.347Z,35.58
2023-08-19T10:54:51.875Z,35.31
2023-08-19T10:57:24.709Z,35.27
2023-08-19T10:59:59.626Z,34.90
2023-08-19T11:02:30.623Z,35.37
2023-08-19T11:04:58.928Z,35.41
2023-08-19T11:07:31.914Z,35.25
2023-08-19T11:10:00.151Z,34.78
2023-08-19T11:12:30.493Z,34.59
2023-08-19T11:15:01.018Z,34.94
2023-08-19T11:17:35.678Z,34.93
2023-08-19T11:20:53.971Z,34.92
2023-08-19T11:23:30.925Z,34.92
2023-08-19T11:26:00.119Z,34.50
2023-08-19T11:28:28.661Z,34.93
2023-08-19T11:30:57.308Z,34.60
2023-08-19T11:33:29.769Z,34.39
2023-08-19T11:36:00.435Z,34.61
2023-08-19T11:38:29.812Z,34.63
2023-08-19T11:40:57.386Z,34.65
2023-08-19T11:43:26.515Z,34.59
2023-08-19T11:45:57.209Z,34.80
2023-08-19T11:48:25.756Z,34.80
2023-08-19T11:50:54.374Z,34.91
2023-08-19T11:53:26.987Z,35.03
2023-08-19T11:55:58.839Z,35.02
2023-08-19T11:58:43.818Z,34.94
2023-08-19T12:01:13.845Z,35.17
2023-08-19T12:03:44.239Z,35.39
2023-08-19T12:06:14.114Z,35.22
2023-08-19T12:08:45.144Z,35.66
2023-08-19T12:11:15.965Z,35.48
2023-08-19T12:13:45.090Z,35.72
2023-08-19T12:16:15.017Z,35.46
2023-08-19T12:18:45.316Z,35.55
2023-08-19T12:21:15.129Z,35.98
2023-08-19T12:23:43.909Z,36.21
2023-08-19T12:26:14.897Z,35.87
2023-08-19T12:28:44.840Z,35.82
2023-08-19T12:31:14.085Z,36.05
2023-08-19T12:33:42.558Z,36.20
2023-08-19T12:36:19.096Z,36.04
2023-08-19T12:38:50.855Z,35.85
2023-08-19T12:41:20.810Z,36.11
2023-08-19T12:43:50.158Z,36.05
2023-08-19T12:46:18.773Z,36.32
2023-08-19T12:48:48.090Z,36.21
2023-08-19T12:51:18.592Z,36.22
2023-08-19T12:53:48.335Z,36.18
2023-08-19T12:56:17.277Z,36.23
2023-08-19T12:58:49.264Z,36.56
2023-08-19T13:01:16.913Z,36.72
2023-08-19T13:03:46.665Z,36.74
2023-08-19T13:06:16.855Z,36.57
2023-08-19T13:08:48.017Z,36.69
2023-08-19T13:11:17.301Z,36.69
2023-08-19T13:13:47.008Z,36.46
2023-08-19T13:16:20.068Z,36.69
2023-08-19T13:18:47.738Z,36.60
2023-08-19T13:21:42.298Z,36.64
2023-08-19T13:24:10.817Z,36.98
2023-08-19T13:26:39.842Z,36.93
2023-08-19T13:29:09.217Z,37.21
2023-08-19T13:31:39.096Z,37.35
2023-08-19T13:34:09.176Z,37.38
2023-08-19T13:36:39.108Z,37.51
2023-08-19T13:39:07.055Z,37.28
2023-08-19T13:41:37.219Z,37.30
2023-08-19T13:44:06.307Z,37.26
2023-08-19T13:46:36.566Z,37.47
2023-08-19T13:49:05.759Z,37.61
2023-08-19T13:51:34.020Z,37.52
2023-08-19T13:54:03.771Z,37.52
2023-08-19T13:56:31.411Z,37.67
2023-08-19T13:58:59.143Z,37.51
2023-08-19T14:01:27.862Z,37.69
2023-08-19T14:03:58.396Z,37.48
2023-08-19T14:06:28.575Z,37.10
2023-08-19T14:08:57.734Z,37.03
2023-08-19T14:11:25.498Z,37.10
2023-08-19T14:13:56.045Z,37.25
2023-08-19T14:16:26.520Z,37.35
2023-08-19T14:18:54.317Z,37.47
2023-08-19T14:21:22.875Z,37.61
2023-08-19T14:23:55.215Z,37.53
2023-08-19T14:26:23.366Z,37.45
2023-08-19T14:28:51.886Z,37.43
2023-08-19T14:31:20.603Z,37.53
2023-08-19T14:33:48.136Z,37.39
2023-08-19T14:36:17.803Z,37.53
2023-08-19T14:38:46.988Z,37.73
2023-08-19T14:41:16.791Z,38.04
2023-08-19T14:43:44.923Z,38.11
2023-08-19T14:46:14.944Z,38.27
2023-08-19T14:48:44.152Z,38.39
2023-08-19T14:51:12.112Z,38.19
2023-08-19T14:53:40.608Z,38.46
2023-08-19T14:56:09.089Z,38.22
2023-08-19T14:58:43.620Z,38.24
2023-08-19T15:01:11.991Z,38.28
2023-08-19T15:03:41.505Z,38.01
2023-08-19T15:06:09.630Z,37.90
2023-08-19T15:08:39.416Z,38.31
2023-08-19T15:11:09.554Z,38.37
2023-08-19T15:13:39.299Z,38.31
2023-08-19T15:16:08.096Z,38.21
2023-08-19T15:18:38.208Z,38.19
2023-08-19T15:25:28.507Z,38.36
2023-08-19T15:27:58.212Z,38.63
2023-08-19T15:30:27.298Z,38.54
2023-08-19T15:32:55.998Z,38.44
2023-08-19T15:35:25.160Z,38.57
2023-08-19T15:37:53.101Z,38.59
2023-08-19T15:40:22.260Z,38.81
2023-08-19T15:42:51.216Z,38.79
2023-08-19T15:45:19.027Z,39.13
2023-08-19T15:47:49.056Z,39.00
2023-08-19T15:50:17.571Z,39.44
2023-08-19T15:52:48.486Z,39.30
2023-08-19T15:55:18.081Z,39.51
2023-08-19T15:57:45.667Z,39.51
2023-08-19T16:00:15.555Z,39.66
2023-08-19T16:02:43.592Z,39.83
2023-08-19T16:05:11.813Z,40.01
2023-08-19T16:07:43.545Z,40.20
2023-08-19T16:10:12.505Z,40.36
2023-08-19T16:12:42.004Z,40.18
2023-08-19T16:15:10.667Z,40.15
2023-08-19T16:17:40.791Z,40.00
2023-08-19T16:20:11.706Z,40.20
2023-08-19T16:22:43.014Z,40.17
2023-08-19T16:25:11.090Z,40.10
2023-08-19T16:27:39.347Z,40.19
2023-08-19T16:30:10.364Z,40.07
2023-08-19T16:32:38.389Z,40.32
2023-08-19T16:35:07.704Z,40.27
2023-08-19T16:37:36.701Z,40.49
2023-08-19T16:40:09.475Z,40.70
2023-08-19T16:42:37.364Z,40.96
2023-08-19T16:45:06.426Z,40.99
2023-08-19T16:47:35.705Z,40.95
2023-08-19T16:50:05.284Z,41.27
2023-08-19T16:52:35.180Z,41.32
2023-08-19T16:55:03.499Z,41.63
2023-08-19T16:57:37.370Z,41.98
2023-08-19T17:00:09.134Z,42.10
2023-08-19T17:02:40.694Z,42.39
2023-08-19T17:05:10.431Z,42.36
2023-08-19T17:07:38.069Z,42.51
2023-08-19T17:10:07.818Z,42.92
2023-08-19T17:12:39.143Z,43.01
2023-08-19T17:15:08.415Z,43.06
2023-08-19T17:17:38.130Z,43.37
2023-08-19T17:20:36.756Z,43.47
2023-08-19T17:23:10.445Z,43.66
2023-08-19T17:25:43.663Z,43.95
2023-08-19T17:28:13.627Z,43.94
2023-08-19T17:30:42.452Z,44.13
2023-08-19T17:33:12.786Z,44.27
2023-08-19T17:35:41.348Z,44.41
2023-08-19T17:38:14.158Z,44.61
2023-08-19T17:40:45.255Z,44.95
2023-08-19T17:43:14.569Z,45.10
2023-08-19T17:45:46.368Z,45.45
2023-08-19T17:48:17.935Z,45.50
2023-08-19T17:50:46.936Z,45.56
2023-08-19T17:53:15.254Z,45.65
2023-08-19T17:55:45.705Z,46.09
2023-08-19T17:58:14.545Z,45.97
2023-08-19T18:00:47.156Z,46.25
2023-08-19T18:03:15.422Z,46.47
2023-08-19T18:05:47.465Z,46.74
2023-08-19T18:08:16.833Z,46.69
2023-08-19T18:10:47.252Z,46.95
2023-08-19T18:13:17.735Z,46.95
2023-08-19T18:15:48.879Z,47.20
2023-08-19T18:18:16.965Z,47.20
2023-08-19T18:20:44.901Z,47.64
2023-08-19T18:23:16.226Z,47.71
2023-08-19T18:25:47.568Z,47.78
2023-08-19T18:28:17.649Z,47.90
2023-08-19T18:30:55.332Z,48.05
2023-08-19T18:33:24.520Z,48.27
2023-08-19T18:35:53.481Z,48.38
2023-08-19T18:38:23.418Z,48.50
2023-08-19T18:40:51.359Z,48.75
2023-08-19T18:43:19.758Z,48.84
2023-08-19T18:45:48.015Z,48.91
2023-08-19T18:48:17.091Z,49.01
2023-08-19T18:50:47.666Z,49.06
2023-08-19T18:53:15.791Z,49.23
2023-08-19T18:55:45.115Z,49.29
2023-08-19T18:58:15.344Z,49.22
2023-08-19T19:00:44.209Z,49.28
2023-08-19T19:03:16.812Z,49.48
2023-08-19T19:05:49.058Z,49.57
2023-08-19T19:08:21.413Z,49.62
2023-08-19T19:10:53.505Z,49.84
2023-08-19T19:13:23.092Z,49.95
2023-08-19T19:15:52.987Z,50.01
2023-08-19T19:18:24.393Z,50.10
2023-08-19T19:20:55.878Z,50.33
2023-08-19T19:23:26.798Z,50.30
2023-08-19T19:26:01.404Z,50.53
2023-08-19T19:28:31.628Z,50.59
2023-08-19T19:31:03.635Z,50.76
2023-08-19T19:33:33.349Z,50.97
2023-08-19T19:36:04.866Z,51.01
2023-08-19T19:38:33.445Z,51.09
2023-08-19T19:41:03.069Z,51.20
2023-08-19T19:43:35.645Z,51.42
2023-08-19T19:46:07.810Z,51.38
2023-08-19T19:48:39.976Z,51.60
2023-08-19T19:51:11.329Z,51.71
2023-08-19T19:53:40.308Z,51.83
2023-08-19T19:56:11.937Z,51.95
2023-08-19T19:58:43.539Z,52.04
2023-08-19T20:01:16.093Z,52.07
2023-08-19T20:03:48.816Z,52.21
2023-08-19T20:06:18.861Z,52.33
2023-08-19T20:08:51.807Z,52.42
2023-08-19T20:11:26.746Z,52.57
2023-08-19T20:13:57.288Z,52.67
2023-08-19T20:16:26.477Z,52.74
2023-08-19T20:18:57.670Z,52.82
2023-08-19T20:21:54.368Z,52.89
2023-08-19T20:24:23.699Z,53.02
2023-08-19T20:26:52.688Z,53.17
2023-08-19T20:29:23.175Z,53.23
2023-08-19T20:31:52.676Z,53.35
2023-08-19T20:34:21.814Z,53.43
2023-08-19T20:36:54.013Z,53.56
2023-08-19T20:39:24.338Z,53.55
2023-08-19T20:41:54.650Z,53.71
2023-08-19T20:44:24.226Z,53.81
2023-08-19T20:46:54.070Z,53.95
2023-08-19T20:49:26.518Z,54.11
2023-08-19T20:51:59.429Z,54.17
2023-08-19T20:54:30.783Z,54.15
2023-08-19T20:57:01.721Z,54.31
2023-08-19T20:59:33.495Z,54.50
2023-08-19T21:02:04.316Z,54.73
2023-08-19T21:04:34.348Z,54.85
2023-08-19T21:07:02.285Z,54.92
2023-08-19T21:09:30.817Z,55.05
2023-08-19T21:12:01.820Z,55.27
2023-08-19T21:14:30.700Z,55.46
2023-08-19T21:17:00.230Z,55.72
2023-08-19T21:19:32.945Z,55.77
2023-08-19T21:22:02.991Z,56.03
2023-08-19T21:24:31.833Z,56.29
2023-08-19T21:27:01.264Z,56.36
2023-08-19T21:29:31.356Z,56.45
2023-08-19T21:32:00.398Z,56.53
2023-08-19T21:34:30.794Z,56.52
2023-08-19T21:36:59.243Z,56.78
2023-08-19T21:39:28.366Z,56.82
2023-08-19T21:41:58.811Z,56.89
2023-08-19T21:44:26.966Z,57.04
2023-08-19T21:46:59.956Z,57.16
2023-08-19T21:49:33.536Z,57.26
2023-08-19T21:52:03.824Z,57.25
2023-08-19T21:54:32.779Z,57.44
2023-08-19T21:57:01.487Z,57.62
2023-08-19T21:59:29.702Z,57.63
2023-08-19T22:02:01.959Z,57.60
2023-08-19T22:04:31.508Z,57.77
2023-08-19T22:07:01.288Z,57.98
2023-08-19T22:09:32.257Z,57.96
2023-08-19T22:12:05.344Z,58.19
2023-08-19T22:14:34.380Z,58.10
2023-08-19T22:17:04.248Z,58.21
2023-08-19T22:19:35.697Z,58.18
2023-08-19T22:22:06.120Z,58.37
2023-08-19T22:24:35.480Z,58.36
2023-08-19T22:27:05.143Z,58.60
2023-08-19T22:29:35.810Z,58.67
2023-08-19T22:32:05.818Z,58.78
2023-08-19T22:34:36.389Z,58.96
2023-08-19T22:37:06.213Z,58.88
2023-08-19T22:39:36.695Z,58.91
2023-08-19T22:42:06.015Z,58.90
2023-08-19T22:44:37.541Z,59.04
2023-08-19T22:47:06.743Z,59.21
2023-08-19T22:49:38.168Z,59.20
2023-08-19T22:52:11.518Z,59.33
2023-08-19T22:54:39.787Z,59.38
2023-08-19T22:57:08.298Z,59.47
2023-08-19T22:59:39.275Z,59.49
2023-08-19T23:02:10.759Z,59.84
2023-08-19T23:04:40.572Z,59.67
2023-08-19T23:07:11.465Z,59.71
2023-08-19T23:09:42.105Z,59.71
2023-08-19T23:12:12.885Z,60.02
2023-08-19T23:14:42.511Z,60.22
2023-08-19T23:17:14.479Z,60.38
2023-08-19T23:21:00.613Z,60.37
2023-08-19T23:23:30.353Z,60.53
2023-08-19T23:26:00.800Z,60.67
2023-08-19T23:28:30.430Z,60.73
2023-08-19T23:31:03.875Z,60.77
2023-08-19T23:33:33.301Z,60.89
2023-08-19T23:36:06.211Z,60.73
2023-08-19T23:38:35.111Z,60.86
2023-08-19T23:41:06.863Z,60.96
2023-08-19T23:43:36.477Z,61.21
2023-08-19T23:46:07.027Z,61.42
2023-08-19T23:48:36.319Z,61.45
2023-08-19T23:51:08.038Z,61.53
2023-08-19T23:53:40.622Z,61.80
2023-08-19T23:56:10.409Z,61.85
2023-08-19T23:58:40.055Z,62.02
